Terminal Aerodrome Forecast
Issued by NWS

Home | Current Version | Previous Version | Text Only | Print | Product List | Glossary On
Versions: 1 2 3 4 5 6 7 8 9 10 11 12
000
FTUS42 KGSP 291734
TAFGMU
TAF
KGMU 291734Z 2918/3018 24003KT P6SM SCT250
     FM301300 05006KT P6SM SCT120 BKN200
     FM301700 14006KT P6SM BKN200=

USA.gov is the U.S. government's official web portal to all federal, state and local government web resources and services.